sensor_id;sensor_type;location;lat;lon;timestamp;P1;durP1;ratioP1;P2;durP2;ratioP2
7104;SDS011;3594;42.152;24.714;2022-07-18T00:01:45;4.13;;;2.10;;
7104;SDS011;3594;42.152;24.714;2022-07-18T00:04:10;2.90;;;1.88;;
7104;SDS011;3594;42.152;24.714;2022-07-18T00:06:36;2.95;;;2.00;;
7104;SDS011;3594;42.152;24.714;2022-07-18T00:09:02;2.22;;;1.90;;
7104;SDS011;3594;42.152;24.714;2022-07-18T00:11:28;3.50;;;1.88;;
7104;SDS011;3594;42.152;24.714;2022-07-18T00:13:54;1.95;;;1.75;;
7104;SDS011;3594;42.152;24.714;2022-07-18T00:16:20;2.58;;;1.95;;
7104;SDS011;3594;42.152;24.714;2022-07-18T00:18:48;2.47;;;2.03;;
7104;SDS011;3594;42.152;24.714;2022-07-18T00:21:13;3.10;;;2.22;;
7104;SDS011;3594;42.152;24.714;2022-07-18T00:23:39;2.53;;;1.73;;
7104;SDS011;3594;42.152;24.714;2022-07-18T00:26:05;2.30;;;1.70;;
7104;SDS011;3594;42.152;24.714;2022-07-18T00:28:30;2.30;;;1.80;;
7104;SDS011;3594;42.152;24.714;2022-07-18T00:30:55;2.03;;;1.77;;
7104;SDS011;3594;42.152;24.714;2022-07-18T00:33:21;2.53;;;1.80;;
7104;SDS011;3594;42.152;24.714;2022-07-18T00:35:46;1.95;;;1.60;;
7104;SDS011;3594;42.152;24.714;2022-07-18T00:38:12;4.88;;;1.67;;
7104;SDS011;3594;42.152;24.714;2022-07-18T00:40:38;2.28;;;1.70;;
7104;SDS011;3594;42.152;24.714;2022-07-18T00:43:03;2.92;;;1.80;;
7104;SDS011;3594;42.152;24.714;2022-07-18T00:45:28;2.40;;;1.90;;
7104;SDS011;3594;42.152;24.714;2022-07-18T00:47:54;1.83;;;1.50;;
7104;SDS011;3594;42.152;24.714;2022-07-18T00:50:20;1.67;;;1.50;;
7104;SDS011;3594;42.152;24.714;2022-07-18T00:52:47;1.73;;;1.35;;
7104;SDS011;3594;42.152;24.714;2022-07-18T00:55:13;2.03;;;1.50;;
7104;SDS011;3594;42.152;24.714;2022-07-18T00:57:39;2.03;;;1.70;;
7104;SDS011;3594;42.152;24.714;2022-07-18T01:00:09;2.50;;;1.63;;
7104;SDS011;3594;42.152;24.714;2022-07-18T01:02:56;2.38;;;1.70;;
7104;SDS011;3594;42.152;24.714;2022-07-18T01:05:22;1.95;;;1.50;;
7104;SDS011;3594;42.152;24.714;2022-07-18T01:07:48;1.85;;;1.58;;
7104;SDS011;3594;42.152;24.714;2022-07-18T01:10:14;2.53;;;1.67;;
7104;SDS011;3594;42.152;24.714;2022-07-18T01:12:39;1.75;;;1.40;;
7104;SDS011;3594;42.152;24.714;2022-07-18T01:15:05;3.03;;;1.70;;
7104;SDS011;3594;42.152;24.714;2022-07-18T01:17:32;3.35;;;1.73;;
7104;SDS011;3594;42.152;24.714;2022-07-18T01:19:58;2.17;;;1.48;;
7104;SDS011;3594;42.152;24.714;2022-07-18T01:22:23;2.22;;;1.52;;
7104;SDS011;3594;42.152;24.714;2022-07-18T01:24:49;1.77;;;1.40;;
7104;SDS011;3594;42.152;24.714;2022-07-18T01:27:16;1.85;;;1.40;;
7104;SDS011;3594;42.152;24.714;2022-07-18T01:29:44;2.13;;;1.70;;
7104;SDS011;3594;42.152;24.714;2022-07-18T01:32:11;1.77;;;1.60;;
7104;SDS011;3594;42.152;24.714;2022-07-18T01:34:37;1.73;;;1.48;;
7104;SDS011;3594;42.152;24.714;2022-07-18T01:37:05;1.98;;;1.40;;
7104;SDS011;3594;42.152;24.714;2022-07-18T01:39:32;2.05;;;1.30;;
7104;SDS011;3594;42.152;24.714;2022-07-18T01:41:59;2.85;;;1.67;;
7104;SDS011;3594;42.152;24.714;2022-07-18T01:44:26;1.85;;;1.42;;
7104;SDS011;3594;42.152;24.714;2022-07-18T01:46:52;8.15;;;1.52;;
7104;SDS011;3594;42.152;24.714;2022-07-18T01:49:18;2.63;;;1.70;;
7104;SDS011;3594;42.152;24.714;2022-07-18T01:51:44;1.90;;;1.40;;
7104;SDS011;3594;42.152;24.714;2022-07-18T01:54:15;1.90;;;1.50;;
7104;SDS011;3594;42.152;24.714;2022-07-18T01:56:41;2.42;;;1.77;;
7104;SDS011;3594;42.152;24.714;2022-07-18T01:59:06;2.35;;;1.70;;
7104;SDS011;3594;42.152;24.714;2022-07-18T02:01:32;1.80;;;1.35;;
7104;SDS011;3594;42.152;24.714;2022-07-18T02:03:57;1.88;;;1.58;;
7104;SDS011;3594;42.152;24.714;2022-07-18T02:06:23;1.67;;;1.40;;
7104;SDS011;3594;42.152;24.714;2022-07-18T02:08:48;2.50;;;1.70;;
7104;SDS011;3594;42.152;24.714;2022-07-18T02:11:14;1.88;;;1.55;;
7104;SDS011;3594;42.152;24.714;2022-07-18T02:13:39;2.95;;;1.58;;
7104;SDS011;3594;42.152;24.714;2022-07-18T02:16:05;2.30;;;1.73;;
7104;SDS011;3594;42.152;24.714;2022-07-18T02:18:31;2.58;;;1.63;;
7104;SDS011;3594;42.152;24.714;2022-07-18T02:21:00;1.90;;;1.48;;
7104;SDS011;3594;42.152;24.714;2022-07-18T02:23:26;2.65;;;1.50;;
7104;SDS011;3594;42.152;24.714;2022-07-18T02:25:51;1.98;;;1.58;;
7104;SDS011;3594;42.152;24.714;2022-07-18T02:28:17;2.33;;;1.70;;
7104;SDS011;3594;42.152;24.714;2022-07-18T02:30:42;2.65;;;1.70;;
7104;SDS011;3594;42.152;24.714;2022-07-18T02:33:08;2.42;;;1.60;;
7104;SDS011;3594;42.152;24.714;2022-07-18T02:35:34;2.97;;;1.80;;
7104;SDS011;3594;42.152;24.714;2022-07-18T02:37:59;2.47;;;1.50;;
7104;SDS011;3594;42.152;24.714;2022-07-18T02:40:25;2.40;;;1.70;;
7104;SDS011;3594;42.152;24.714;2022-07-18T02:42:51;2.17;;;1.58;;
7104;SDS011;3594;42.152;24.714;2022-07-18T02:45:16;2.72;;;1.80;;
7104;SDS011;3594;42.152;24.714;2022-07-18T02:47:42;3.05;;;1.90;;
7104;SDS011;3594;42.152;24.714;2022-07-18T02:50:08;5.15;;;1.70;;
7104;SDS011;3594;42.152;24.714;2022-07-18T02:52:34;1.60;;;1.50;;
7104;SDS011;3594;42.152;24.714;2022-07-18T02:54:59;2.50;;;1.60;;
7104;SDS011;3594;42.152;24.714;2022-07-18T02:57:26;2.22;;;1.80;;
7104;SDS011;3594;42.152;24.714;2022-07-18T02:59:52;3.38;;;2.00;;
7104;SDS011;3594;42.152;24.714;2022-07-18T03:02:18;2.28;;;1.70;;
7104;SDS011;3594;42.152;24.714;2022-07-18T03:04:44;4.97;;;2.03;;
7104;SDS011;3594;42.152;24.714;2022-07-18T03:07:09;2.47;;;1.73;;
7104;SDS011;3594;42.152;24.714;2022-07-18T03:09:35;2.50;;;1.90;;
7104;SDS011;3594;42.152;24.714;2022-07-18T03:12:00;2.50;;;2.00;;
7104;SDS011;3594;42.152;24.714;2022-07-18T03:14:26;2.50;;;1.92;;
7104;SDS011;3594;42.152;24.714;2022-07-18T03:16:51;3.47;;;2.13;;
7104;SDS011;3594;42.152;24.714;2022-07-18T03:19:17;2.20;;;1.60;;
7104;SDS011;3594;42.152;24.714;2022-07-18T03:21:43;2.42;;;1.65;;
7104;SDS011;3594;42.152;24.714;2022-07-18T03:24:08;2.65;;;1.75;;
7104;SDS011;3594;42.152;24.714;2022-07-18T03:26:35;2.63;;;1.65;;
7104;SDS011;3594;42.152;24.714;2022-07-18T03:29:01;3.67;;;2.17;;
7104;SDS011;3594;42.152;24.714;2022-07-18T03:31:27;2.10;;;1.60;;
7104;SDS011;3594;42.152;24.714;2022-07-18T03:33:53;2.88;;;2.05;;
7104;SDS011;3594;42.152;24.714;2022-07-18T03:36:18;2.22;;;1.63;;
7104;SDS011;3594;42.152;24.714;2022-07-18T03:38:44;2.30;;;1.77;;
7104;SDS011;3594;42.152;24.714;2022-07-18T03:41:09;2.67;;;1.63;;
7104;SDS011;3594;42.152;24.714;2022-07-18T03:43:37;2.28;;;1.60;;
7104;SDS011;3594;42.152;24.714;2022-07-18T03:46:03;2.08;;;1.70;;
7104;SDS011;3594;42.152;24.714;2022-07-18T03:48:28;2.45;;;1.80;;
7104;SDS011;3594;42.152;24.714;2022-07-18T03:50:54;2.00;;;1.58;;
7104;SDS011;3594;42.152;24.714;2022-07-18T03:53:20;3.00;;;1.42;;
7104;SDS011;3594;42.152;24.714;2022-07-18T03:55:45;1.98;;;1.55;;
7104;SDS011;3594;42.152;24.714;2022-07-18T03:58:11;2.58;;;1.80;;
7104;SDS011;3594;42.152;24.714;2022-07-18T04:00:36;2.30;;;1.60;;
7104;SDS011;3594;42.152;24.714;2022-07-18T04:03:02;2.00;;;1.45;;
7104;SDS011;3594;42.152;24.714;2022-07-18T04:05:28;2.45;;;1.60;;
7104;SDS011;3594;42.152;24.714;2022-07-18T04:07:53;2.90;;;1.70;;
7104;SDS011;3594;42.152;24.714;2022-07-18T04:10:18;1.90;;;1.50;;
7104;SDS011;3594;42.152;24.714;2022-07-18T04:12:45;3.75;;;2.22;;
7104;SDS011;3594;42.152;24.714;2022-07-18T04:15:17;1.67;;;1.38;;
7104;SDS011;3594;42.152;24.714;2022-07-18T04:17:44;2.03;;;1.48;;
7104;SDS011;3594;42.152;24.714;2022-07-18T04:20:10;1.63;;;1.33;;
7104;SDS011;3594;42.152;24.714;2022-07-18T04:22:46;2.60;;;1.55;;
7104;SDS011;3594;42.152;24.714;2022-07-18T04:25:18;2.10;;;1.77;;
7104;SDS011;3594;42.152;24.714;2022-07-18T04:27:44;2.33;;;1.63;;
7104;SDS011;3594;42.152;24.714;2022-07-18T04:30:10;2.50;;;1.85;;
7104;SDS011;3594;42.152;24.714;2022-07-18T04:32:37;1.80;;;1.42;;
7104;SDS011;3594;42.152;24.714;2022-07-18T04:35:04;3.00;;;1.50;;
7104;SDS011;3594;42.152;24.714;2022-07-18T04:37:30;2.30;;;1.35;;
7104;SDS011;3594;42.152;24.714;2022-07-18T04:39:59;1.77;;;1.55;;
7104;SDS011;3594;42.152;24.714;2022-07-18T04:42:24;1.30;;;1.20;;
7104;SDS011;3594;42.152;24.714;2022-07-18T04:44:50;2.17;;;1.40;;
7104;SDS011;3594;42.152;24.714;2022-07-18T04:47:16;2.08;;;1.52;;
7104;SDS011;3594;42.152;24.714;2022-07-18T04:49:41;1.55;;;1.42;;
7104;SDS011;3594;42.152;24.714;2022-07-18T04:52:07;2.33;;;1.60;;
7104;SDS011;3594;42.152;24.714;2022-07-18T04:54:32;1.33;;;1.15;;
7104;SDS011;3594;42.152;24.714;2022-07-18T04:56:58;1.40;;;1.30;;
7104;SDS011;3594;42.152;24.714;2022-07-18T04:59:23;2.03;;;1.42;;
7104;SDS011;3594;42.152;24.714;2022-07-18T05:01:49;1.77;;;1.48;;
7104;SDS011;3594;42.152;24.714;2022-07-18T05:04:14;1.15;;;1.05;;
7104;SDS011;3594;42.152;24.714;2022-07-18T05:06:39;1.48;;;1.38;;
7104;SDS011;3594;42.152;24.714;2022-07-18T05:09:05;2.67;;;2.00;;
7104;SDS011;3594;42.152;24.714;2022-07-18T05:11:30;3.75;;;1.60;;
7104;SDS011;3594;42.152;24.714;2022-07-18T05:13:56;2.30;;;1.40;;
7104;SDS011;3594;42.152;24.714;2022-07-18T05:16:21;1.70;;;1.60;;
7104;SDS011;3594;42.152;24.714;2022-07-18T05:18:47;2.00;;;1.70;;
7104;SDS011;3594;42.152;24.714;2022-07-18T05:21:13;3.22;;;1.40;;
7104;SDS011;3594;42.152;24.714;2022-07-18T05:23:38;2.00;;;1.60;;
7104;SDS011;3594;42.152;24.714;2022-07-18T05:26:04;1.92;;;1.40;;
7104;SDS011;3594;42.152;24.714;2022-07-18T05:28:30;1.50;;;1.40;;
7104;SDS011;3594;42.152;24.714;2022-07-18T05:30:55;1.95;;;1.55;;
7104;SDS011;3594;42.152;24.714;2022-07-18T05:33:21;1.55;;;1.30;;
7104;SDS011;3594;42.152;24.714;2022-07-18T05:35:46;2.10;;;1.50;;
7104;SDS011;3594;42.152;24.714;2022-07-18T05:38:12;2.40;;;1.35;;
7104;SDS011;3594;42.152;24.714;2022-07-18T05:40:38;2.38;;;1.42;;
7104;SDS011;3594;42.152;24.714;2022-07-18T05:43:04;2.53;;;1.60;;
7104;SDS011;3594;42.152;24.714;2022-07-18T05:45:30;1.75;;;1.40;;
7104;SDS011;3594;42.152;24.714;2022-07-18T05:47:56;4.28;;;1.70;;
7104;SDS011;3594;42.152;24.714;2022-07-18T05:50:22;4.97;;;1.90;;
7104;SDS011;3594;42.152;24.714;2022-07-18T05:52:48;2.20;;;1.70;;
7104;SDS011;3594;42.152;24.714;2022-07-18T05:55:14;1.92;;;1.50;;
7104;SDS011;3594;42.152;24.714;2022-07-18T05:57:40;2.20;;;1.58;;
7104;SDS011;3594;42.152;24.714;2022-07-18T06:00:06;2.22;;;1.58;;
7104;SDS011;3594;42.152;24.714;2022-07-18T06:02:34;5.88;;;1.77;;
7104;SDS011;3594;42.152;24.714;2022-07-18T06:05:00;2.20;;;1.52;;
7104;SDS011;3594;42.152;24.714;2022-07-18T06:07:25;2.78;;;1.60;;
7104;SDS011;3594;42.152;24.714;2022-07-18T06:09:51;3.22;;;1.75;;
7104;SDS011;3594;42.152;24.714;2022-07-18T06:12:16;3.40;;;2.20;;
7104;SDS011;3594;42.152;24.714;2022-07-18T06:14:42;2.25;;;1.60;;
7104;SDS011;3594;42.152;24.714;2022-07-18T06:17:08;3.17;;;2.03;;
7104;SDS011;3594;42.152;24.714;2022-07-18T06:19:33;2.60;;;1.88;;
7104;SDS011;3594;42.152;24.714;2022-07-18T06:21:59;2.83;;;1.95;;
7104;SDS011;3594;42.152;24.714;2022-07-18T06:24:25;2.40;;;1.63;;
7104;SDS011;3594;42.152;24.714;2022-07-18T06:26:50;1.75;;;1.48;;
7104;SDS011;3594;42.152;24.714;2022-07-18T06:29:16;2.92;;;1.98;;
7104;SDS011;3594;42.152;24.714;2022-07-18T06:31:42;6.63;;;1.58;;
7104;SDS011;3594;42.152;24.714;2022-07-18T06:34:07;2.20;;;1.50;;
7104;SDS011;3594;42.152;24.714;2022-07-18T06:36:33;2.22;;;1.60;;
7104;SDS011;3594;42.152;24.714;2022-07-18T06:38:59;2.22;;;1.58;;
7104;SDS011;3594;42.152;24.714;2022-07-18T06:41:25;1.90;;;1.30;;
7104;SDS011;3594;42.152;24.714;2022-07-18T06:43:51;1.83;;;1.60;;
7104;SDS011;3594;42.152;24.714;2022-07-18T06:46:16;3.00;;;1.80;;
7104;SDS011;3594;42.152;24.714;2022-07-18T06:48:42;1.70;;;1.40;;
7104;SDS011;3594;42.152;24.714;2022-07-18T06:51:07;2.10;;;1.50;;
7104;SDS011;3594;42.152;24.714;2022-07-18T06:53:33;1.67;;;1.40;;
7104;SDS011;3594;42.152;24.714;2022-07-18T06:55:59;2.10;;;1.60;;
7104;SDS011;3594;42.152;24.714;2022-07-18T06:58:27;2.17;;;1.50;;
7104;SDS011;3594;42.152;24.714;2022-07-18T07:00:55;1.65;;;1.45;;
7104;SDS011;3594;42.152;24.714;2022-07-18T07:03:21;2.10;;;1.50;;
7104;SDS011;3594;42.152;24.714;2022-07-18T07:05:47;2.05;;;1.55;;
7104;SDS011;3594;42.152;24.714;2022-07-18T07:08:13;2.28;;;1.40;;
7104;SDS011;3594;42.152;24.714;2022-07-18T07:10:39;1.40;;;1.30;;
7104;SDS011;3594;42.152;24.714;2022-07-18T07:13:05;1.52;;;1.27;;
7104;SDS011;3594;42.152;24.714;2022-07-18T07:15:31;1.85;;;1.60;;
7104;SDS011;3594;42.152;24.714;2022-07-18T07:17:56;1.73;;;1.40;;
7104;SDS011;3594;42.152;24.714;2022-07-18T07:20:22;1.52;;;1.35;;
7104;SDS011;3594;42.152;24.714;2022-07-18T07:22:48;1.98;;;1.58;;
7104;SDS011;3594;42.152;24.714;2022-07-18T07:25:18;2.50;;;1.40;;
7104;SDS011;3594;42.152;24.714;2022-07-18T07:27:46;2.53;;;1.50;;
7104;SDS011;3594;42.152;24.714;2022-07-18T07:30:12;2.10;;;1.30;;
7104;SDS011;3594;42.152;24.714;2022-07-18T07:32:40;1.77;;;1.50;;
7104;SDS011;3594;42.152;24.714;2022-07-18T07:35:08;3.75;;;1.70;;
7104;SDS011;3594;42.152;24.714;2022-07-18T07:37:38;4.05;;;1.50;;
7104;SDS011;3594;42.152;24.714;2022-07-18T07:40:04;3.08;;;1.40;;
7104;SDS011;3594;42.152;24.714;2022-07-18T07:42:31;1.90;;;1.17;;
7104;SDS011;3594;42.152;24.714;2022-07-18T07:44:56;1.50;;;1.30;;
7104;SDS011;3594;42.152;24.714;2022-07-18T07:47:21;1.80;;;1.50;;
7104;SDS011;3594;42.152;24.714;2022-07-18T07:49:47;1.80;;;1.48;;
7104;SDS011;3594;42.152;24.714;2022-07-18T07:52:13;2.17;;;1.50;;
7104;SDS011;3594;42.152;24.714;2022-07-18T07:54:40;4.47;;;1.50;;
7104;SDS011;3594;42.152;24.714;2022-07-18T07:57:06;2.05;;;1.60;;
7104;SDS011;3594;42.152;24.714;2022-07-18T07:59:31;1.42;;;1.23;;
7104;SDS011;3594;42.152;24.714;2022-07-18T08:01:57;2.47;;;1.45;;
7104;SDS011;3594;42.152;24.714;2022-07-18T08:04:26;2.00;;;1.73;;
7104;SDS011;3594;42.152;24.714;2022-07-18T08:06:51;2.50;;;1.67;;
7104;SDS011;3594;42.152;24.714;2022-07-18T08:09:16;1.70;;;1.30;;
7104;SDS011;3594;42.152;24.714;2022-07-18T08:11:42;1.42;;;1.33;;
7104;SDS011;3594;42.152;24.714;2022-07-18T08:14:07;2.58;;;1.50;;
7104;SDS011;3594;42.152;24.714;2022-07-18T08:16:33;1.85;;;1.30;;
7104;SDS011;3594;42.152;24.714;2022-07-18T08:18:59;1.80;;;1.40;;
7104;SDS011;3594;42.152;24.714;2022-07-18T08:21:24;2.05;;;1.48;;
7104;SDS011;3594;42.152;24.714;2022-07-18T08:23:49;1.92;;;1.50;;
7104;SDS011;3594;42.152;24.714;2022-07-18T08:26:15;3.13;;;1.65;;
7104;SDS011;3594;42.152;24.714;2022-07-18T08:28:40;1.75;;;1.48;;
7104;SDS011;3594;42.152;24.714;2022-07-18T08:31:06;1.80;;;1.38;;
7104;SDS011;3594;42.152;24.714;2022-07-18T08:33:31;3.08;;;1.40;;
7104;SDS011;3594;42.152;24.714;2022-07-18T08:35:57;2.35;;;1.48;;
7104;SDS011;3594;42.152;24.714;2022-07-18T08:38:23;1.50;;;1.30;;
7104;SDS011;3594;42.152;24.714;2022-07-18T08:40:48;2.05;;;1.65;;
7104;SDS011;3594;42.152;24.714;2022-07-18T08:43:17;1.95;;;1.42;;
7104;SDS011;3594;42.152;24.714;2022-07-18T08:45:43;1.70;;;1.30;;
7104;SDS011;3594;42.152;24.714;2022-07-18T08:48:13;11.75;;;2.25;;
7104;SDS011;3594;42.152;24.714;2022-07-18T08:50:41;2.20;;;1.50;;
7104;SDS011;3594;42.152;24.714;2022-07-18T08:53:09;2.60;;;1.60;;
7104;SDS011;3594;42.152;24.714;2022-07-18T08:55:36;2.22;;;1.58;;
7104;SDS011;3594;42.152;24.714;2022-07-18T08:58:02;1.73;;;1.50;;
7104;SDS011;3594;42.152;24.714;2022-07-18T09:00:27;2.30;;;1.67;;
7104;SDS011;3594;42.152;24.714;2022-07-18T09:03:01;1.63;;;1.40;;
7104;SDS011;3594;42.152;24.714;2022-07-18T09:05:28;2.00;;;1.50;;
7104;SDS011;3594;42.152;24.714;2022-07-18T09:08:07;1.65;;;1.30;;
7104;SDS011;3594;42.152;24.714;2022-07-18T09:11:08;1.40;;;1.20;;
7104;SDS011;3594;42.152;24.714;2022-07-18T09:18:35;2.03;;;1.80;;
7104;SDS011;3594;42.152;24.714;2022-07-18T09:21:02;2.83;;;1.75;;
7104;SDS011;3594;42.152;24.714;2022-07-18T09:23:33;2.20;;;1.40;;
7104;SDS011;3594;42.152;24.714;2022-07-18T09:25:59;2.75;;;1.60;;
7104;SDS011;3594;42.152;24.714;2022-07-18T09:28:29;1.27;;;1.17;;
7104;SDS011;3594;42.152;24.714;2022-07-18T09:31:18;1.60;;;1.40;;
7104;SDS011;3594;42.152;24.714;2022-07-18T09:33:53;4.05;;;1.95;;
7104;SDS011;3594;42.152;24.714;2022-07-18T09:36:19;1.73;;;1.50;;
7104;SDS011;3594;42.152;24.714;2022-07-18T09:38:45;4.88;;;1.55;;
7104;SDS011;3594;42.152;24.714;2022-07-18T09:41:11;2.42;;;1.80;;
7104;SDS011;3594;42.152;24.714;2022-07-18T09:43:37;3.28;;;1.92;;
7104;SDS011;3594;42.152;24.714;2022-07-18T09:46:03;2.10;;;1.55;;
7104;SDS011;3594;42.152;24.714;2022-07-18T09:48:30;2.25;;;1.67;;
7104;SDS011;3594;42.152;24.714;2022-07-18T09:50:57;3.70;;;1.60;;
7104;SDS011;3594;42.152;24.714;2022-07-18T09:53:25;3.63;;;1.40;;
7104;SDS011;3594;42.152;24.714;2022-07-18T09:56:02;3.25;;;1.92;;
7104;SDS011;3594;42.152;24.714;2022-07-18T09:58:30;2.22;;;1.65;;
7104;SDS011;3594;42.152;24.714;2022-07-18T10:00:58;2.10;;;1.77;;
7104;SDS011;3594;42.152;24.714;2022-07-18T10:03:26;3.03;;;1.80;;
7104;SDS011;3594;42.152;24.714;2022-07-18T10:05:53;3.40;;;1.60;;
7104;SDS011;3594;42.152;24.714;2022-07-18T10:08:23;2.63;;;1.80;;
7104;SDS011;3594;42.152;24.714;2022-07-18T10:10:51;1.98;;;1.60;;
7104;SDS011;3594;42.152;24.714;2022-07-18T10:13:19;1.60;;;1.45;;
7104;SDS011;3594;42.152;24.714;2022-07-18T10:15:46;2.78;;;1.90;;
7104;SDS011;3594;42.152;24.714;2022-07-18T10:18:14;2.38;;;1.80;;
7104;SDS011;3594;42.152;24.714;2022-07-18T10:23:50;2.63;;;1.92;;
7104;SDS011;3594;42.152;24.714;2022-07-18T10:26:25;2.40;;;1.90;;
7104;SDS011;3594;42.152;24.714;2022-07-18T10:31:20;2.20;;;1.70;;
7104;SDS011;3594;42.152;24.714;2022-07-18T10:33:49;3.38;;;1.83;;
7104;SDS011;3594;42.152;24.714;2022-07-18T10:36:19;3.33;;;2.08;;
7104;SDS011;3594;42.152;24.714;2022-07-18T10:44:31;2.28;;;1.90;;
7104;SDS011;3594;42.152;24.714;2022-07-18T10:57:26;2.75;;;2.20;;
7104;SDS011;3594;42.152;24.714;2022-07-18T10:59:59;2.55;;;1.90;;
7104;SDS011;3594;42.152;24.714;2022-07-18T11:02:39;2.72;;;1.90;;
7104;SDS011;3594;42.152;24.714;2022-07-18T11:23:48;3.55;;;2.47;;
7104;SDS011;3594;42.152;24.714;2022-07-18T11:26:17;4.03;;;2.60;;
7104;SDS011;3594;42.152;24.714;2022-07-18T11:28:48;5.30;;;2.33;;
7104;SDS011;3594;42.152;24.714;2022-07-18T11:31:21;3.42;;;2.70;;
7104;SDS011;3594;42.152;24.714;2022-07-18T11:33:47;3.08;;;2.10;;
7104;SDS011;3594;42.152;24.714;2022-07-18T11:36:15;2.90;;;2.30;;
7104;SDS011;3594;42.152;24.714;2022-07-18T11:38:48;2.97;;;2.20;;
7104;SDS011;3594;42.152;24.714;2022-07-18T11:41:19;3.00;;;2.40;;
7104;SDS011;3594;42.152;24.714;2022-07-18T11:43:46;6.45;;;3.08;;
7104;SDS011;3594;42.152;24.714;2022-07-18T11:46:14;3.28;;;2.53;;
7104;SDS011;3594;42.152;24.714;2022-07-18T11:48:42;2.70;;;1.92;;
7104;SDS011;3594;42.152;24.714;2022-07-18T11:51:14;3.72;;;2.35;;
7104;SDS011;3594;42.152;24.714;2022-07-18T11:53:47;4.15;;;2.70;;
7104;SDS011;3594;42.152;24.714;2022-07-18T11:56:15;2.97;;;2.10;;
7104;SDS011;3594;42.152;24.714;2022-07-18T11:58:42;2.97;;;2.30;;
7104;SDS011;3594;42.152;24.714;2022-07-18T12:01:09;3.20;;;2.38;;
7104;SDS011;3594;42.152;24.714;2022-07-18T12:03:37;4.10;;;2.47;;
7104;SDS011;3594;42.152;24.714;2022-07-18T12:06:09;2.50;;;2.10;;
7104;SDS011;3594;42.152;24.714;2022-07-18T12:08:39;3.22;;;2.30;;
7104;SDS011;3594;42.152;24.714;2022-07-18T12:11:17;3.03;;;2.40;;
7104;SDS011;3594;42.152;24.714;2022-07-18T12:14:12;4.03;;;2.72;;
7104;SDS011;3594;42.152;24.714;2022-07-18T12:16:46;4.03;;;2.53;;
7104;SDS011;3594;42.152;24.714;2022-07-18T12:19:13;3.60;;;2.47;;
7104;SDS011;3594;42.152;24.714;2022-07-18T12:25:02;2.95;;;2.22;;
7104;SDS011;3594;42.152;24.714;2022-07-18T12:27:23;3.28;;;2.30;;
7104;SDS011;3594;42.152;24.714;2022-07-18T12:32:38;3.33;;;2.25;;
7104;SDS011;3594;42.152;24.714;2022-07-18T12:37:56;4.03;;;2.60;;
7104;SDS011;3594;42.152;24.714;2022-07-18T12:40:24;4.15;;;2.50;;
7104;SDS011;3594;42.152;24.714;2022-07-18T12:43:01;4.93;;;3.13;;
7104;SDS011;3594;42.152;24.714;2022-07-18T12:45:28;3.33;;;2.80;;
7104;SDS011;3594;42.152;24.714;2022-07-18T12:47:54;3.15;;;2.50;;
7104;SDS011;3594;42.152;24.714;2022-07-18T12:50:19;3.67;;;2.80;;
7104;SDS011;3594;42.152;24.714;2022-07-18T12:52:45;3.35;;;2.67;;
7104;SDS011;3594;42.152;24.714;2022-07-18T12:55:10;3.75;;;2.85;;
7104;SDS011;3594;42.152;24.714;2022-07-18T12:57:36;3.30;;;2.78;;
7104;SDS011;3594;42.152;24.714;2022-07-18T13:00:01;3.92;;;2.90;;
7104;SDS011;3594;42.152;24.714;2022-07-18T13:02:28;4.50;;;2.70;;
7104;SDS011;3594;42.152;24.714;2022-07-18T13:04:53;3.00;;;2.42;;
7104;SDS011;3594;42.152;24.714;2022-07-18T13:07:18;3.53;;;2.95;;
7104;SDS011;3594;42.152;24.714;2022-07-18T13:09:44;5.07;;;2.85;;
7104;SDS011;3594;42.152;24.714;2022-07-18T13:12:09;3.33;;;2.53;;
7104;SDS011;3594;42.152;24.714;2022-07-18T13:14:35;4.13;;;2.78;;
7104;SDS011;3594;42.152;24.714;2022-07-18T13:17:00;4.88;;;2.47;;
7104;SDS011;3594;42.152;24.714;2022-07-18T13:19:26;4.28;;;2.83;;
7104;SDS011;3594;42.152;24.714;2022-07-18T13:21:52;3.60;;;2.90;;
7104;SDS011;3594;42.152;24.714;2022-07-18T13:24:17;3.88;;;2.97;;
7104;SDS011;3594;42.152;24.714;2022-07-18T13:26:42;3.95;;;3.15;;
7104;SDS011;3594;42.152;24.714;2022-07-18T13:29:08;4.25;;;3.38;;
7104;SDS011;3594;42.152;24.714;2022-07-18T13:31:34;3.22;;;2.70;;
7104;SDS011;3594;42.152;24.714;2022-07-18T13:34:02;4.25;;;3.00;;
7104;SDS011;3594;42.152;24.714;2022-07-18T13:36:28;3.78;;;2.92;;
7104;SDS011;3594;42.152;24.714;2022-07-18T13:38:54;4.22;;;3.00;;
7104;SDS011;3594;42.152;24.714;2022-07-18T13:41:20;4.32;;;3.30;;
7104;SDS011;3594;42.152;24.714;2022-07-18T13:43:46;4.85;;;3.33;;
7104;SDS011;3594;42.152;24.714;2022-07-18T13:46:12;4.00;;;3.10;;
7104;SDS011;3594;42.152;24.714;2022-07-18T13:48:38;4.30;;;3.10;;
7104;SDS011;3594;42.152;24.714;2022-07-18T13:51:04;3.60;;;3.10;;
7104;SDS011;3594;42.152;24.714;2022-07-18T13:53:30;4.55;;;3.40;;
7104;SDS011;3594;42.152;24.714;2022-07-18T13:55:56;6.20;;;3.50;;
7104;SDS011;3594;42.152;24.714;2022-07-18T13:58:22;4.55;;;3.47;;
7104;SDS011;3594;42.152;24.714;2022-07-18T14:00:47;3.72;;;3.03;;
7104;SDS011;3594;42.152;24.714;2022-07-18T14:03:13;5.47;;;3.33;;
7104;SDS011;3594;42.152;24.714;2022-07-18T14:05:39;6.03;;;3.50;;
7104;SDS011;3594;42.152;24.714;2022-07-18T14:08:05;4.45;;;3.33;;
7104;SDS011;3594;42.152;24.714;2022-07-18T14:10:31;3.33;;;3.00;;
7104;SDS011;3594;42.152;24.714;2022-07-18T14:12:57;4.78;;;3.83;;
7104;SDS011;3594;42.152;24.714;2022-07-18T14:15:23;5.35;;;3.85;;
7104;SDS011;3594;42.152;24.714;2022-07-18T14:17:48;5.28;;;3.92;;
7104;SDS011;3594;42.152;24.714;2022-07-18T14:20:14;4.25;;;3.33;;
7104;SDS011;3594;42.152;24.714;2022-07-18T14:22:40;10.73;;;3.80;;
7104;SDS011;3594;42.152;24.714;2022-07-18T14:25:07;4.32;;;3.45;;
7104;SDS011;3594;42.152;24.714;2022-07-18T14:27:34;4.00;;;3.15;;
7104;SDS011;3594;42.152;24.714;2022-07-18T14:29:59;5.22;;;3.90;;
7104;SDS011;3594;42.152;24.714;2022-07-18T14:32:26;4.90;;;3.63;;
7104;SDS011;3594;42.152;24.714;2022-07-18T14:34:52;4.55;;;3.60;;
7104;SDS011;3594;42.152;24.714;2022-07-18T14:37:18;4.70;;;3.88;;
7104;SDS011;3594;42.152;24.714;2022-07-18T14:39:43;5.60;;;4.10;;
7104;SDS011;3594;42.152;24.714;2022-07-18T14:42:09;4.60;;;3.50;;
7104;SDS011;3594;42.152;24.714;2022-07-18T14:44:35;3.80;;;3.40;;
7104;SDS011;3594;42.152;24.714;2022-07-18T14:47:00;7.60;;;4.13;;
7104;SDS011;3594;42.152;24.714;2022-07-18T14:49:26;4.38;;;3.70;;
7104;SDS011;3594;42.152;24.714;2022-07-18T14:51:53;4.47;;;3.85;;
7104;SDS011;3594;42.152;24.714;2022-07-18T14:54:18;5.75;;;3.95;;
7104;SDS011;3594;42.152;24.714;2022-07-18T14:56:43;4.75;;;3.88;;
7104;SDS011;3594;42.152;24.714;2022-07-18T14:59:09;6.25;;;4.32;;
7104;SDS011;3594;42.152;24.714;2022-07-18T15:01:34;6.28;;;4.35;;
7104;SDS011;3594;42.152;24.714;2022-07-18T15:04:00;4.70;;;3.92;;
7104;SDS011;3594;42.152;24.714;2022-07-18T15:06:25;4.70;;;3.58;;
7104;SDS011;3594;42.152;24.714;2022-07-18T15:08:51;6.40;;;3.92;;
7104;SDS011;3594;42.152;24.714;2022-07-18T15:11:17;4.80;;;3.78;;
7104;SDS011;3594;42.152;24.714;2022-07-18T15:13:43;6.57;;;3.58;;
7104;SDS011;3594;42.152;24.714;2022-07-18T15:16:10;5.55;;;3.90;;
7104;SDS011;3594;42.152;24.714;2022-07-18T15:18:35;4.95;;;3.80;;
7104;SDS011;3594;42.152;24.714;2022-07-18T15:21:02;4.97;;;3.80;;
7104;SDS011;3594;42.152;24.714;2022-07-18T15:23:27;5.43;;;3.85;;
7104;SDS011;3594;42.152;24.714;2022-07-18T15:25:53;5.78;;;4.03;;
7104;SDS011;3594;42.152;24.714;2022-07-18T15:28:18;5.38;;;3.80;;
7104;SDS011;3594;42.152;24.714;2022-07-18T15:30:46;6.13;;;4.15;;
7104;SDS011;3594;42.152;24.714;2022-07-18T15:33:12;5.65;;;3.83;;
7104;SDS011;3594;42.152;24.714;2022-07-18T15:35:37;5.68;;;4.10;;
7104;SDS011;3594;42.152;24.714;2022-07-18T15:38:03;4.70;;;3.75;;
7104;SDS011;3594;42.152;24.714;2022-07-18T15:40:29;4.35;;;3.40;;
7104;SDS011;3594;42.152;24.714;2022-07-18T15:42:54;4.65;;;3.63;;
7104;SDS011;3594;42.152;24.714;2022-07-18T15:45:20;6.35;;;3.85;;
7104;SDS011;3594;42.152;24.714;2022-07-18T15:47:45;4.82;;;3.60;;
7104;SDS011;3594;42.152;24.714;2022-07-18T15:50:10;4.57;;;3.55;;
7104;SDS011;3594;42.152;24.714;2022-07-18T15:52:37;5.90;;;3.60;;